Time,TemperatureF,DewpointF,PressureIn,WindDirection,WindDirectionDegrees,WindSpeedMPH,WindSpeedGustMPH,Humidity,HourlyPrecipIn,Conditions,Clouds,dailyrainin,SoftwareType,DateUTC
2013-10-07 00:01:00,48.7,47.3,30.07,SE,129,3.0,12.0,95,0.00,,,0.23,Wunderground v.1.15,2013-10-07 04:01:00,
2013-10-07 00:02:00,48.7,47.3,30.08,ESE,109,7.0,12.0,95,0.00,,,0.23,Wunderground v.1.15,2013-10-07 04:02:00,
2013-10-07 00:03:00,48.7,47.3,30.07,ESE,112,6.0,12.0,95,0.00,,,0.23,Wunderground v.1.15,2013-10-07 04:03:00,
2013-10-07 00:04:00,48.7,47.3,30.07,ESE,110,11.0,12.0,95,0.00,,,0.23,Wunderground v.1.15,2013-10-07 04:04:00,
2013-10-07 00:05:00,48.7,47.3,30.07,SSE,162,11.0,12.0,95,0.00,,,0.23,Wunderground v.1.15,2013-10-07 04:05:00,
2013-10-07 00:09:00,48.7,47.3,30.07,ESE,110,8.0,8.0,95,0.00,,,0.23,Wunderground v.1.15,2013-10-07 04:09:00,
2013-10-07 00:15:00,48.8,47.4,30.07,SSE,157,9.0,10.0,95,0.00,,,0.23,Wunderground v.1.15,2013-10-07 04:15:00,
2013-10-07 00:20:00,48.7,47.3,30.07,SE,134,3.0,10.0,95,0.00,,,0.23,Wunderground v.1.15,2013-10-07 04:20:00,
2013-10-07 00:25:00,48.6,47.2,30.07,South,183,1.0,10.0,95,0.00,,,0.23,Wunderground v.1.15,2013-10-07 04:25:00,
2013-10-07 00:31:00,48.5,47.1,30.07,ENE,75,1.0,7.0,95,0.00,,,0.23,Wunderground v.1.15,2013-10-07 04:31:00,
2013-10-07 00:36:00,48.6,47.5,30.06,ENE,78,4.0,7.0,96,0.00,,,0.23,Wunderground v.1.15,2013-10-07 04:36:00,
2013-10-07 00:41:00,48.8,47.4,30.06,East,81,5.0,5.0,95,0.00,,,0.23,Wunderground v.1.15,2013-10-07 04:41:00,
2013-10-07 00:47:00,48.7,47.3,30.06,ESE,112,5.0,7.0,95,0.00,,,0.23,Wunderground v.1.15,2013-10-07 04:47:00,
2013-10-07 00:52:00,49.0,47.9,30.06,ENE,73,11.0,11.0,96,0.00,,,0.23,Wunderground v.1.15,2013-10-07 04:52:00,
2013-10-07 00:58:00,49.4,48.0,30.05,SSE,150,7.0,12.0,95,0.00,,,0.23,Wunderground v.1.15,2013-10-07 04:58:00,
2013-10-07 01:04:00,49.6,48.2,30.05,East,84,10.0,14.0,95,0.00,,,0.23,Wunderground v.1.15,2013-10-07 05:04:00,
2013-10-07 01:09:00,49.7,48.3,30.06,SE,134,3.0,7.0,95,0.00,,,0.23,Wunderground v.1.15,2013-10-07 05:09:00,
2013-10-07 01:15:00,49.7,48.3,30.05,East,90,8.0,16.0,95,0.00,,,0.23,Wunderground v.1.15,2013-10-07 05:15:00,
2013-10-07 01:20:00,49.7,48.3,30.05,ENE,75,7.0,8.0,95,0.00,,,0.23,Wunderground v.1.15,2013-10-07 05:20:00,
2013-10-07 01:25:00,49.9,48.5,30.05,NE,55,8.0,13.0,95,0.00,,,0.23,Wunderground v.1.15,2013-10-07 05:25:00,
2013-10-07 01:31:00,50.0,48.6,30.05,ESE,112,14.0,14.0,95,0.00,,,0.23,Wunderground v.1.15,2013-10-07 05:31:00,
2013-10-07 01:36:00,50.1,48.7,30.05,ESE,103,15.0,17.0,95,0.00,,,0.23,Wunderground v.1.15,2013-10-07 05:36:00,
2013-10-07 01:41:00,50.4,49.0,30.04,SE,136,11.0,13.0,95,0.00,,,0.23,Wunderground v.1.15,2013-10-07 05:41:00,
2013-10-07 01:47:00,50.4,48.7,30.04,ESE,112,5.0,13.0,94,0.00,,,0.23,Wunderground v.1.15,2013-10-07 05:47:00,
2013-10-07 01:52:00,50.5,48.8,30.04,East,101,9.0,12.0,94,0.00,,,0.23,Wunderground v.1.15,2013-10-07 05:52:00,
2013-10-07 01:58:00,50.8,49.1,30.04,East,84,10.0,13.0,94,0.00,,,0.23,Wunderground v.1.15,2013-10-07 05:58:00,
2013-10-07 02:03:00,50.9,49.2,30.04,East,96,7.0,17.0,94,0.00,,,0.23,Wunderground v.1.15,2013-10-07 06:03:00,
2013-10-07 02:08:00,51.0,49.3,30.04,ESE,111,10.0,19.0,94,0.00,,,0.23,Wunderground v.1.15,2013-10-07 06:08:00,
2013-10-07 02:13:00,50.7,49.0,30.04,ESE,105,9.0,17.0,94,0.00,,,0.23,Wunderground v.1.15,2013-10-07 06:13:00,
2013-10-07 02:18:00,50.5,48.8,30.04,East,94,5.0,18.0,94,0.00,,,0.23,Wunderground v.1.15,2013-10-07 06:18:00,
2013-10-07 02:23:00,50.3,48.6,30.04,ESE,106,5.0,14.0,94,0.00,,,0.23,Wunderground v.1.15,2013-10-07 06:23:00,
2013-10-07 02:28:00,50.2,48.8,30.03,ESE,118,11.0,14.0,95,0.00,,,0.23,Wunderground v.1.15,2013-10-07 06:28:00,
2013-10-07 02:33:00,50.2,48.8,30.03,ESE,115,14.0,18.0,95,0.00,,,0.23,Wunderground v.1.15,2013-10-07 06:33:00,
2013-10-07 02:38:00,50.1,48.7,30.02,ENE,74,11.0,18.0,95,0.00,,,0.23,Wunderground v.1.15,2013-10-07 06:38:00,
2013-10-07 02:44:00,50.1,48.7,30.02,East,89,8.0,18.0,95,0.00,,,0.23,Wunderground v.1.15,2013-10-07 06:44:00,
2013-10-07 02:49:00,50.2,48.8,30.02,SE,131,12.0,12.0,95,0.00,,,0.23,Wunderground v.1.15,2013-10-07 06:49:00,
2013-10-07 02:54:00,50.3,48.9,30.02,ESE,113,17.0,17.0,95,0.00,,,0.23,Wunderground v.1.15,2013-10-07 06:54:00,
2013-10-07 02:59:00,50.4,49.0,30.01,SSE,148,5.0,11.0,95,0.00,,,0.23,Wunderground v.1.15,2013-10-07 06:59:00,
2013-10-07 03:04:00,50.4,49.0,30.02,SE,136,6.0,12.0,95,0.00,,,0.23,Wunderground v.1.15,2013-10-07 07:04:00,
2013-10-07 03:09:00,50.5,49.4,30.01,ESE,121,8.0,8.0,96,0.00,,,0.23,Wunderground v.1.15,2013-10-07 07:09:00,
2013-10-07 03:14:00,50.5,49.4,30.01,ESE,105,12.0,16.0,96,0.00,,,0.23,Wunderground v.1.15,2013-10-07 07:14:00,
2013-10-07 03:19:00,50.7,49.6,30.01,ESE,110,15.0,15.0,96,0.00,,,0.23,Wunderground v.1.15,2013-10-07 07:19:00,
2013-10-07 03:24:00,50.8,49.7,30.01,SE,140,9.0,17.0,96,0.00,,,0.23,Wunderground v.1.15,2013-10-07 07:24:00,
2013-10-07 03:29:00,50.9,49.8,30.01,East,86,15.0,19.0,96,0.00,,,0.23,Wunderground v.1.15,2013-10-07 07:29:00,
2013-10-07 03:33:00,51.2,50.1,30.01,East,92,10.0,16.0,96,0.00,,,0.23,Wunderground v.1.15,2013-10-07 07:33:00,
2013-10-07 03:39:00,51.2,50.1,30.01,SSE,147,7.0,16.0,96,0.00,,,0.23,Wunderground v.1.15,2013-10-07 07:39:00,
2013-10-07 03:43:00,51.2,50.1,30.01,ENE,72,7.0,15.0,96,0.00,,,0.23,Wunderground v.1.15,2013-10-07 07:43:00,
2013-10-07 03:49:00,51.4,50.3,30.01,East,80,5.0,8.0,96,0.00,,,0.23,Wunderground v.1.15,2013-10-07 07:49:00,
2013-10-07 03:54:00,51.7,50.6,30.01,East,88,4.0,13.0,96,0.00,,,0.00,Wunderground v.1.15,2013-10-07 07:54:00,
2013-10-07 03:59:00,52.1,51.0,30.01,SE,131,3.0,5.0,96,0.00,,,0.00,Wunderground v.1.15,2013-10-07 07:59:00,
2013-10-07 04:04:00,52.4,51.3,30.01,SE,127,2.0,7.0,96,0.00,,,0.00,Wunderground v.1.15,2013-10-07 08:04:00,
2013-10-07 04:09:00,52.6,51.2,30.01,SE,145,5.0,7.0,95,0.00,,,0.00,Wunderground v.1.15,2013-10-07 08:09:00,
2013-10-07 04:14:00,52.6,51.2,30.01,ESE,117,3.0,7.0,95,0.00,,,0.00,Wunderground v.1.15,2013-10-07 08:14:00,
2013-10-07 04:19:00,52.6,51.2,30.01,SE,135,7.0,8.0,95,0.00,,,0.00,Wunderground v.1.15,2013-10-07 08:19:00,
2013-10-07 04:24:00,52.8,51.4,30.00,East,98,5.0,8.0,95,0.00,,,0.00,Wunderground v.1.15,2013-10-07 08:24:00,
2013-10-07 04:29:00,53.0,51.6,30.00,SE,131,9.0,9.0,95,0.00,,,0.00,Wunderground v.1.15,2013-10-07 08:29:00,
2013-10-07 04:34:00,53.2,51.8,30.00,ENE,77,6.0,16.0,95,0.00,,,0.00,Wunderground v.1.15,2013-10-07 08:34:00,
2013-10-07 04:39:00,53.4,52.0,30.00,East,91,8.0,9.0,95,0.00,,,0.00,Wunderground v.1.15,2013-10-07 08:39:00,
2013-10-07 04:44:00,53.2,51.5,29.99,East,97,6.0,12.0,94,0.00,,,0.00,Wunderground v.1.15,2013-10-07 08:44:00,
2013-10-07 04:49:00,53.2,51.8,29.99,SE,133,7.0,7.0,95,0.00,,,0.00,Wunderground v.1.15,2013-10-07 08:49:00,
2013-10-07 04:54:00,53.5,52.1,29.99,East,84,7.0,10.0,95,0.00,,,0.00,Wunderground v.1.15,2013-10-07 08:54:00,
2013-10-07 04:59:00,53.9,52.5,29.99,SE,131,10.0,10.0,95,0.00,,,0.00,Wunderground v.1.15,2013-10-07 08:59:00,
2013-10-07 05:04:00,53.9,52.2,29.99,East,99,11.0,14.0,94,0.00,,,0.00,Wunderground v.1.15,2013-10-07 09:04:00,
2013-10-07 05:09:00,53.9,52.2,29.99,ENE,74,9.0,9.0,94,0.00,,,0.00,Wunderground v.1.15,2013-10-07 09:09:00,
2013-10-07 05:14:00,53.9,52.2,29.99,SE,140,4.0,15.0,94,0.00,,,0.00,Wunderground v.1.15,2013-10-07 09:14:00,
2013-10-07 05:19:00,53.6,51.9,29.99,ENE,75,9.0,9.0,94,0.00,,,0.00,Wunderground v.1.15,2013-10-07 09:19:00,
2013-10-07 05:24:00,53.5,51.8,29.98,SE,129,6.0,10.0,94,0.00,,,0.00,Wunderground v.1.15,2013-10-07 09:24:00,
2013-10-07 05:29:00,53.4,51.7,29.98,SE,136,7.0,7.0,94,0.00,,,0.00,Wunderground v.1.15,2013-10-07 09:29:00,
2013-10-07 05:34:00,53.3,51.6,29.98,SSE,152,4.0,12.0,94,0.00,,,0.00,Wunderground v.1.15,2013-10-07 09:34:00,
2013-10-07 05:39:00,53.1,51.4,29.98,South,174,1.0,4.0,94,0.00,,,0.00,Wunderground v.1.15,2013-10-07 09:39:00,
2013-10-07 05:44:00,52.8,51.1,29.98,East,85,4.0,7.0,94,0.00,,,0.00,Wunderground v.1.15,2013-10-07 09:44:00,
2013-10-07 05:49:00,52.8,51.4,29.98,SE,127,7.0,8.0,95,0.00,,,0.00,Wunderground v.1.15,2013-10-07 09:49:00,
2013-10-07 05:54:00,53.1,52.0,29.97,ESE,104,7.0,10.0,96,0.00,,,0.00,Wunderground v.1.15,2013-10-07 09:54:00,
2013-10-07 05:59:00,53.2,51.8,29.98,SE,136,4.0,5.0,95,0.00,,,0.00,Wunderground v.1.15,2013-10-07 09:59:00,
2013-10-07 06:04:00,53.0,51.6,29.97,East,96,4.0,8.0,95,0.00,,,0.00,Wunderground v.1.15,2013-10-07 10:04:00,
2013-10-07 06:09:00,52.9,51.5,29.98,NNE,22,0.0,4.0,95,0.00,,,0.00,Wunderground v.1.15,2013-10-07 10:09:00,
2013-10-07 06:14:00,52.7,51.3,29.98,SW,235,0.0,7.0,95,0.00,,,0.00,Wunderground v.1.15,2013-10-07 10:14:00,
2013-10-07 06:19:00,52.6,51.5,29.98,SE,145,2.0,2.0,96,0.00,,,0.00,Wunderground v.1.15,2013-10-07 10:19:00,
2013-10-07 06:24:00,52.6,51.5,29.98,SSE,150,4.0,6.0,96,0.00,,,0.00,Wunderground v.1.15,2013-10-07 10:24:00,
2013-10-07 06:29:00,52.7,51.6,29.98,ESE,112,3.0,3.0,96,0.00,,,0.00,Wunderground v.1.15,2013-10-07 10:29:00,
2013-10-07 06:34:00,53.0,52.2,29.97,ESE,104,10.0,12.0,97,0.00,,,0.00,Wunderground v.1.15,2013-10-07 10:34:00,
2013-10-07 06:39:00,53.5,52.4,29.97,ESE,110,6.0,8.0,96,0.00,,,0.00,Wunderground v.1.15,2013-10-07 10:39:00,
2013-10-07 06:44:00,53.9,52.8,29.97,East,100,6.0,13.0,96,0.00,,,0.00,Wunderground v.1.15,2013-10-07 10:44:00,
2013-10-07 06:49:00,54.2,53.1,29.97,East,99,7.0,9.0,96,0.00,,,0.00,Wunderground v.1.15,2013-10-07 10:49:00,
2013-10-07 06:54:00,54.1,52.7,29.96,ENE,72,7.0,13.0,95,0.00,,,0.00,Wunderground v.1.15,2013-10-07 10:54:00,
2013-10-07 06:59:00,53.9,52.5,29.96,ESE,121,7.0,8.0,95,0.00,,,0.00,Wunderground v.1.15,2013-10-07 10:59:00,
2013-10-07 07:04:00,54.1,53.0,29.96,ENE,73,11.0,11.0,96,0.00,,,0.00,Wunderground v.1.15,2013-10-07 11:04:00,
2013-10-07 07:09:00,54.4,53.3,29.96,SSE,147,4.0,6.0,96,0.00,,,0.00,Wunderground v.1.15,2013-10-07 11:09:00,
2013-10-07 07:14:00,54.5,53.1,29.96,ESE,119,4.0,11.0,95,0.00,,,0.00,Wunderground v.1.15,2013-10-07 11:14:00,
2013-10-07 07:19:00,54.3,52.9,29.96,ENE,74,4.0,6.0,95,0.00,,,0.00,Wunderground v.1.15,2013-10-07 11:19:00,
2013-10-07 07:24:00,54.2,52.8,29.96,SSE,148,8.0,14.0,95,0.00,,,0.00,Wunderground v.1.15,2013-10-07 11:24:00,
2013-10-07 07:29:00,54.2,52.8,29.97,East,91,3.0,8.0,95,0.00,,,0.00,Wunderground v.1.15,2013-10-07 11:29:00,
2013-10-07 07:34:00,54.3,53.2,29.96,ESE,115,6.0,11.0,96,0.00,,,0.00,Wunderground v.1.15,2013-10-07 11:34:00,
2013-10-07 07:39:00,54.5,53.1,29.96,SSE,158,9.0,10.0,95,0.00,,,0.00,Wunderground v.1.15,2013-10-07 11:39:00,
2013-10-07 07:44:00,54.6,53.2,29.96,ESE,121,8.0,11.0,95,0.00,,,0.00,Wunderground v.1.15,2013-10-07 11:44:00,
2013-10-07 07:49:00,54.5,53.1,29.96,ESE,121,7.0,7.0,95,0.00,,,0.00,Wunderground v.1.15,2013-10-07 11:49:00,
2013-10-07 07:54:00,54.4,53.3,29.96,SE,131,5.0,11.0,96,0.00,,,0.00,Wunderground v.1.15,2013-10-07 11:54:00,
2013-10-07 07:59:00,54.5,53.4,29.97,SSE,159,5.0,7.0,96,0.00,,,0.00,Wunderground v.1.15,2013-10-07 11:59:00,
2013-10-07 08:04:00,54.5,53.4,29.97,SE,145,7.0,10.0,96,0.00,,,0.00,Wunderground v.1.15,2013-10-07 12:04:00,
2013-10-07 08:09:00,54.6,53.5,29.97,SE,138,4.0,6.0,96,0.00,,,0.00,Wunderground v.1.15,2013-10-07 12:09:00,
2013-10-07 08:14:00,54.7,53.6,29.96,ESE,121,8.0,12.0,96,0.00,,,0.00,Wunderground v.1.15,2013-10-07 12:14:00,
2013-10-07 08:19:00,54.8,53.7,29.96,East,81,3.0,6.0,96,0.00,,,0.00,Wunderground v.1.15,2013-10-07 12:19:00,
2013-10-07 08:24:00,54.9,53.8,29.96,SSE,151,3.0,10.0,96,0.00,,,0.00,Wunderground v.1.15,2013-10-07 12:24:00,
2013-10-07 08:29:00,54.9,53.8,29.96,ESE,103,6.0,6.0,96,0.00,,,0.00,Wunderground v.1.15,2013-10-07 12:29:00,
2013-10-07 08:34:00,55.1,54.0,29.96,SE,125,8.0,11.0,96,0.00,,,0.00,Wunderground v.1.15,2013-10-07 12:34:00,
2013-10-07 08:39:00,55.3,54.2,29.96,ESE,106,6.0,6.0,96,0.00,,,0.00,Wunderground v.1.15,2013-10-07 12:39:00,
2013-10-07 08:44:00,55.7,54.6,29.96,East,96,5.0,7.0,96,0.00,,,0.00,Wunderground v.1.15,2013-10-07 12:44:00,
2013-10-07 08:49:00,56.1,55.0,29.96,East,87,2.0,4.0,96,0.00,,,0.00,Wunderground v.1.15,2013-10-07 12:49:00,
2013-10-07 08:54:00,56.5,55.4,29.95,East,87,2.0,4.0,96,0.00,,,0.00,Wunderground v.1.15,2013-10-07 12:54:00,
2013-10-07 08:59:00,56.7,55.3,29.95,SE,146,4.0,4.0,95,0.00,,,0.00,Wunderground v.1.15,2013-10-07 12:59:00,
2013-10-07 09:04:00,56.8,55.4,29.95,ESE,105,2.0,6.0,95,0.00,,,0.00,Wunderground v.1.15,2013-10-07 13:04:00,
2013-10-07 09:09:00,56.8,55.1,29.95,SSE,153,1.0,4.0,94,0.00,,,0.00,Wunderground v.1.15,2013-10-07 13:09:00,
2013-10-07 09:14:00,56.7,55.3,29.95,East,96,4.0,7.0,95,0.00,,,0.00,Wunderground v.1.15,2013-10-07 13:14:00,
2013-10-07 09:19:00,56.8,55.4,29.95,SE,144,1.0,3.0,95,0.00,,,0.00,Wunderground v.1.15,2013-10-07 13:19:00,
2013-10-07 09:24:00,57.0,55.6,29.95,ENE,72,3.0,4.0,95,0.00,,,0.00,Wunderground v.1.15,2013-10-07 13:24:00,
2013-10-07 09:29:00,57.2,55.8,29.94,ESE,110,1.0,2.0,95,0.00,,,0.00,Wunderground v.1.15,2013-10-07 13:29:00,
2013-10-07 09:34:00,57.5,56.1,29.94,WNW,286,0.0,3.0,95,0.00,,,0.00,Wunderground v.1.15,2013-10-07 13:34:00,
2013-10-07 09:39:00,57.8,56.4,29.94,NE,37,2.0,4.0,95,0.00,,,0.00,Wunderground v.1.15,2013-10-07 13:39:00,
2013-10-07 09:44:00,58.1,56.7,29.94,SE,134,0.0,5.0,95,0.00,,,0.00,Wunderground v.1.15,2013-10-07 13:44:00,
2013-10-07 09:49:00,58.5,56.8,29.93,NE,55,4.0,5.0,94,0.00,,,0.00,Wunderground v.1.15,2013-10-07 13:49:00,
2013-10-07 09:54:00,58.8,56.8,29.93,SE,125,2.0,7.0,93,0.00,,,0.00,Wunderground v.1.15,2013-10-07 13:54:00,
2013-10-07 09:59:00,58.9,56.9,29.92,ESE,122,7.0,7.0,93,0.00,,,0.00,Wunderground v.1.15,2013-10-07 13:59:00,
2013-10-07 10:05:00,59.0,57.0,29.92,SSE,160,1.0,11.0,93,0.00,,,0.00,Wunderground v.1.15,2013-10-07 14:05:00,
2013-10-07 10:10:00,59.0,57.0,29.92,ESE,117,3.0,5.0,93,0.00,,,0.00,Wunderground v.1.15,2013-10-07 14:10:00,
2013-10-07 10:15:00,59.0,57.0,29.92,SSE,155,9.0,11.0,93,0.00,,,0.00,Wunderground v.1.15,2013-10-07 14:15:00,
2013-10-07 10:21:00,58.9,56.9,29.92,ESE,103,8.0,8.0,93,0.00,,,0.00,Wunderground v.1.15,2013-10-07 14:21:00,
2013-10-07 10:29:00,58.8,56.8,29.91,SE,137,4.0,5.0,93,0.00,,,0.00,Wunderground v.1.15,2013-10-07 14:29:00,
2013-10-07 10:34:00,58.9,56.9,29.91,SE,130,4.0,5.0,93,0.00,,,0.00,Wunderground v.1.15,2013-10-07 14:34:00,
2013-10-07 10:39:00,59.0,57.0,29.90,SE,146,3.0,7.0,93,0.00,,,0.00,Wunderground v.1.15,2013-10-07 14:39:00,
2013-10-07 10:44:00,59.1,57.1,29.90,ESE,111,2.0,9.0,93,0.00,,,0.00,Wunderground v.1.15,2013-10-07 14:44:00,
2013-10-07 10:49:00,59.2,57.2,29.90,East,91,5.0,9.0,93,0.00,,,0.00,Wunderground v.1.15,2013-10-07 14:49:00,
2013-10-07 10:54:00,59.3,57.3,29.90,East,79,2.0,7.0,93,0.00,,,0.00,Wunderground v.1.15,2013-10-07 14:54:00,
2013-10-07 11:00:00,59.3,57.3,29.90,ESE,110,5.0,5.0,93,0.00,,,0.00,Wunderground v.1.15,2013-10-07 15:00:00,
2013-10-07 11:05:00,59.0,57.0,29.89,East,81,7.0,12.0,93,0.00,,,0.00,Wunderground v.1.15,2013-10-07 15:05:00,
2013-10-07 11:10:00,58.9,57.2,29.89,ENE,76,6.0,9.0,94,0.00,,,0.00,Wunderground v.1.15,2013-10-07 15:10:00,
2013-10-07 11:15:00,59.2,57.5,29.89,SE,137,6.0,10.0,94,0.00,,,0.00,Wunderground v.1.15,2013-10-07 15:15:00,
2013-10-07 11:20:00,59.7,57.7,29.88,ENE,65,9.0,9.0,93,0.00,,,0.00,Wunderground v.1.15,2013-10-07 15:20:00,
2013-10-07 11:25:00,60.1,58.1,29.88,ESE,106,7.0,10.0,93,0.00,,,0.00,Wunderground v.1.15,2013-10-07 15:25:00,
2013-10-07 11:30:00,60.4,58.4,29.88,ENE,63,3.0,7.0,93,0.00,,,0.00,Wunderground v.1.15,2013-10-07 15:30:00,
2013-10-07 11:35:00,60.9,58.6,29.88,ENE,77,7.0,9.0,92,0.00,,,0.00,Wunderground v.1.15,2013-10-07 15:35:00,
2013-10-07 11:40:00,61.3,59.0,29.88,SE,131,7.0,7.0,92,0.00,,,0.00,Wunderground v.1.15,2013-10-07 15:40:00,
2013-10-07 11:45:00,61.5,59.2,29.88,SE,124,3.0,8.0,92,0.00,,,0.00,Wunderground v.1.15,2013-10-07 15:45:00,
2013-10-07 11:50:00,61.6,59.3,29.88,SE,124,4.0,10.0,92,0.00,,,0.00,Wunderground v.1.15,2013-10-07 15:50:00,
2013-10-07 11:55:00,61.6,59.3,29.87,East,93,8.0,11.0,92,0.00,,,0.00,Wunderground v.1.15,2013-10-07 15:55:00,
2013-10-07 12:00:00,61.7,59.4,29.86,NE,51,6.0,6.0,92,0.00,,,0.00,Wunderground v.1.15,2013-10-07 16:00:00,
2013-10-07 12:05:00,61.7,59.4,29.86,ESE,106,6.0,10.0,92,0.00,,,0.00,Wunderground v.1.15,2013-10-07 16:05:00,
2013-10-07 12:10:00,62.1,59.7,29.86,East,91,16.0,19.0,92,0.00,,,0.00,Wunderground v.1.15,2013-10-07 16:10:00,
2013-10-07 12:15:00,62.5,59.8,29.85,SSE,163,3.0,19.0,91,0.00,,,0.00,Wunderground v.1.15,2013-10-07 16:15:00,
2013-10-07 12:20:00,62.7,60.0,29.85,SSW,196,4.0,6.0,91,0.00,,,0.00,Wunderground v.1.15,2013-10-07 16:20:00,
2013-10-07 12:25:00,62.8,60.1,29.85,SW,235,6.0,16.0,91,0.00,,,0.00,Wunderground v.1.15,2013-10-07 16:25:00,
2013-10-07 12:30:00,62.8,60.1,29.85,ESE,112,4.0,6.0,91,0.00,,,0.00,Wunderground v.1.15,2013-10-07 16:30:00,
2013-10-07 12:35:00,62.8,60.1,29.84,SSE,159,2.0,13.0,91,0.00,,,0.00,Wunderground v.1.15,2013-10-07 16:35:00,
2013-10-07 12:40:00,63.2,60.5,29.83,SE,141,5.0,13.0,91,0.34,,,0.20,Wunderground v.1.15,2013-10-07 16:40:00,
2013-10-07 12:45:00,63.3,60.3,29.83,ENE,64,4.0,13.0,90,0.09,,,0.20,Wunderground v.1.15,2013-10-07 16:45:00,
2013-10-07 12:50:00,63.6,60.6,29.82,SE,136,12.0,12.0,90,0.05,,,0.20,Wunderground v.1.15,2013-10-07 16:50:00,
2013-10-07 12:55:00,64.0,61.0,29.82,SE,135,10.0,15.0,90,0.04,,,0.20,Wunderground v.1.15,2013-10-07 16:55:00,
2013-10-07 13:00:00,64.3,61.0,29.82,WNW,289,2.0,7.0,89,0.00,,,0.20,Wunderground v.1.15,2013-10-07 17:00:00,
2013-10-07 13:05:00,64.8,61.5,29.81,SSE,163,8.0,13.0,89,0.00,,,0.20,Wunderground v.1.15,2013-10-07 17:05:00,
2013-10-07 13:10:00,65.3,61.7,29.81,SSE,164,6.0,10.0,88,0.00,,,0.20,Wunderground v.1.15,2013-10-07 17:10:00,
2013-10-07 13:15:00,65.8,61.8,29.79,ESE,110,5.0,18.0,87,0.00,,,0.20,Wunderground v.1.15,2013-10-07 17:15:00,
2013-10-07 13:20:00,66.5,61.8,29.78,NE,54,6.0,9.0,85,0.00,,,0.20,Wunderground v.1.15,2013-10-07 17:20:00,
2013-10-07 13:25:00,67.0,62.0,29.78,South,172,6.0,17.0,84,0.00,,,0.20,Wunderground v.1.15,2013-10-07 17:25:00,
2013-10-07 13:30:00,66.9,61.6,29.78,SSE,157,8.0,18.0,83,0.00,,,0.20,Wunderground v.1.15,2013-10-07 17:30:00,
2013-10-07 13:35:00,66.5,61.5,29.77,ENE,77,4.0,18.0,84,0.00,,,0.20,Wunderground v.1.15,2013-10-07 17:35:00,
2013-10-07 13:40:00,66.1,61.5,29.77,SSE,150,10.0,12.0,85,0.00,,,0.20,Wunderground v.1.15,2013-10-07 17:40:00,
2013-10-07 13:45:00,65.9,61.3,29.76,NW,326,2.0,17.0,85,0.00,,,0.20,Wunderground v.1.15,2013-10-07 17:45:00,
2013-10-07 13:50:00,65.8,61.2,29.76,SE,131,4.0,22.0,85,0.00,,,0.20,Wunderground v.1.15,2013-10-07 17:50:00,
2013-10-07 13:55:00,65.9,61.6,29.76,SSE,147,2.0,22.0,86,0.00,,,0.20,Wunderground v.1.15,2013-10-07 17:55:00,
2013-10-07 14:00:00,66.0,61.4,29.75,East,89,12.0,13.0,85,0.00,,,0.20,Wunderground v.1.15,2013-10-07 18:00:00,
2013-10-07 14:05:00,66.2,61.6,29.74,SSE,148,5.0,15.0,85,0.00,,,0.20,Wunderground v.1.15,2013-10-07 18:05:00,
2013-10-07 14:10:00,66.6,61.9,29.74,ESE,106,6.0,10.0,85,0.00,,,0.20,Wunderground v.1.15,2013-10-07 18:10:00,
2013-10-07 14:15:00,66.8,61.8,29.75,ENE,71,1.0,14.0,84,0.00,,,0.20,Wunderground v.1.15,2013-10-07 18:15:00,
2013-10-07 14:20:00,66.8,61.8,29.73,SE,141,7.0,17.0,84,0.00,,,0.20,Wunderground v.1.15,2013-10-07 18:20:00,
2013-10-07 14:25:00,66.7,62.0,29.73,ESE,121,4.0,19.0,85,0.00,,,0.20,Wunderground v.1.15,2013-10-07 18:25:00,
2013-10-07 14:30:00,67.0,62.0,29.73,ENE,76,15.0,18.0,84,0.00,,,0.20,Wunderground v.1.15,2013-10-07 18:30:00,
2013-10-07 14:35:00,67.3,62.0,29.72,North,3,7.0,21.0,83,0.00,,,0.20,Wunderground v.1.15,2013-10-07 18:35:00,
2013-10-07 14:40:00,67.5,62.2,29.72,SSE,148,6.0,18.0,83,0.00,,,0.20,Wunderground v.1.15,2013-10-07 18:40:00,
2013-10-07 14:45:00,67.6,61.9,29.72,SSE,151,6.0,18.0,82,0.00,,,0.20,Wunderground v.1.15,2013-10-07 18:45:00,
2013-10-07 14:50:00,67.8,62.1,29.72,SE,134,10.0,15.0,82,0.00,,,0.20,Wunderground v.1.15,2013-10-07 18:50:00,
2013-10-07 14:55:00,67.9,61.9,29.71,ESE,105,16.0,21.0,81,0.00,,,0.20,Wunderground v.1.15,2013-10-07 18:55:00,
2013-10-07 15:00:00,67.7,62.0,29.72,ESE,115,12.0,12.0,82,0.00,,,0.20,Wunderground v.1.15,2013-10-07 19:00:00,
2013-10-07 15:05:00,67.7,62.0,29.71,East,93,9.0,16.0,82,0.00,,,0.20,Wunderground v.1.15,2013-10-07 19:05:00,
2013-10-07 15:10:00,67.6,61.9,29.71,East,101,16.0,26.0,82,0.00,,,0.20,Wunderground v.1.15,2013-10-07 19:10:00,
2013-10-07 15:15:00,67.4,62.1,29.70,East,96,8.0,26.0,83,0.00,,,0.20,Wunderground v.1.15,2013-10-07 19:15:00,
2013-10-07 15:20:00,67.0,62.7,29.70,South,178,5.0,15.0,86,0.00,,,0.21,Wunderground v.1.15,2013-10-07 19:20:00,
2013-10-07 15:25:00,66.2,62.2,29.70,SSE,160,4.0,22.0,87,0.00,,,0.21,Wunderground v.1.15,2013-10-07 19:25:00,
2013-10-07 15:30:00,65.8,62.5,29.70,SSE,157,6.0,22.0,89,0.09,,,0.22,Wunderground v.1.15,2013-10-07 19:30:00,
2013-10-07 15:35:00,65.4,62.4,29.70,South,191,8.0,22.0,90,0.07,,,0.22,Wunderground v.1.15,2013-10-07 19:35:00,
2013-10-07 15:40:00,65.4,62.7,29.70,South,185,5.0,14.0,91,0.05,,,0.23,Wunderground v.1.15,2013-10-07 19:40:00,
2013-10-07 15:45:00,65.5,62.8,29.70,SSE,157,6.0,26.0,91,0.05,,,0.23,Wunderground v.1.15,2013-10-07 19:45:00,
2013-10-07 15:50:00,65.7,62.7,29.69,East,91,8.0,31.0,90,0.05,,,0.23,Wunderground v.1.15,2013-10-07 19:50:00,
2013-10-07 15:55:00,65.6,62.9,29.69,SE,127,10.0,31.0,91,0.04,,,0.23,Wunderground v.1.15,2013-10-07 19:55:00,
2013-10-07 16:00:00,65.5,63.1,29.69,East,86,9.0,17.0,92,0.00,,,0.23,Wunderground v.1.15,2013-10-07 20:00:00,
2013-10-07 16:05:00,65.6,63.2,29.68,SW,231,11.0,24.0,92,0.00,,,0.23,Wunderground v.1.15,2013-10-07 20:05:00,
2013-10-07 16:10:00,65.6,63.2,29.68,East,90,5.0,19.0,92,0.00,,,0.23,Wunderground v.1.15,2013-10-07 20:10:00,
2013-10-07 16:15:00,65.5,63.1,29.69,SW,232,7.0,24.0,92,0.00,,,0.23,Wunderground v.1.15,2013-10-07 20:15:00,
2013-10-07 16:20:00,65.4,63.3,29.73,NNW,327,5.0,15.0,93,0.72,,,0.41,Wunderground v.1.15,2013-10-07 20:20:00,
2013-10-07 16:25:00,64.3,60.7,29.74,SSE,162,6.0,19.0,88,0.28,,,0.44,Wunderground v.1.15,2013-10-07 20:25:00,
2013-10-07 16:30:00,63.2,59.9,29.74,SSE,163,9.0,10.0,89,0.61,,,0.48,Wunderground v.1.15,2013-10-07 20:30:00,
2013-10-07 16:35:00,62.2,59.5,29.73,SSE,157,7.0,10.0,91,0.36,,,0.52,Wunderground v.1.15,2013-10-07 20:35:00,
2013-10-07 16:40:00,61.7,59.4,29.73,SSE,148,3.0,9.0,92,0.17,,,0.53,Wunderground v.1.15,2013-10-07 20:40:00,
2013-10-07 16:45:00,61.5,59.5,29.73,SSW,209,1.0,9.0,93,0.23,,,0.55,Wunderground v.1.15,2013-10-07 20:45:00,
2013-10-07 16:50:00,61.2,59.2,29.73,WSW,253,5.0,8.0,93,0.16,,,0.56,Wunderground v.1.15,2013-10-07 20:50:00,
2013-10-07 16:55:00,61.1,59.4,29.73,South,176,0.0,8.0,94,0.14,,,0.58,Wunderground v.1.15,2013-10-07 20:55:00,
2013-10-07 17:00:00,61.0,59.3,29.73,SSW,193,0.0,2.0,94,0.11,,,0.59,Wunderground v.1.15,2013-10-07 21:00:00,
2013-10-07 17:05:00,60.9,59.2,29.73,SSE,161,0.0,2.0,94,0.20,,,0.60,Wunderground v.1.15,2013-10-07 21:05:00,
2013-10-07 17:10:00,60.7,59.0,29.73,SW,214,0.0,0.0,94,0.23,,,0.62,Wunderground v.1.15,2013-10-07 21:10:00,
2013-10-07 17:15:00,60.6,59.2,29.73,WSW,241,1.0,2.0,95,0.16,,,0.63,Wunderground v.1.15,2013-10-07 21:15:00,
2013-10-07 17:20:00,60.5,59.1,29.74,WSW,243,0.0,0.0,95,0.10,,,0.64,Wunderground v.1.15,2013-10-07 21:20:00,
2013-10-07 17:25:00,60.4,59.3,29.73,West,263,0.0,0.0,96,0.08,,,0.64,Wunderground v.1.15,2013-10-07 21:25:00,
2013-10-07 17:30:00,60.3,59.2,29.73,SSW,192,0.0,3.0,96,0.05,,,0.64,Wunderground v.1.15,2013-10-07 21:30:00,
2013-10-07 17:35:00,60.3,59.2,29.75,South,175,4.0,12.0,96,0.04,,,0.65,Wunderground v.1.15,2013-10-07 21:35:00,
2013-10-07 17:40:00,59.7,57.4,29.75,SSW,194,3.0,11.0,92,0.24,,,0.67,Wunderground v.1.15,2013-10-07 21:40:00,
2013-10-07 17:45:00,59.1,57.1,29.75,SE,135,1.0,11.0,93,0.13,,,0.68,Wunderground v.1.15,2013-10-07 21:45:00,
2013-10-07 17:50:00,58.7,56.4,29.75,NW,325,2.0,8.0,92,0.08,,,0.68,Wunderground v.1.15,2013-10-07 21:50:00,
2013-10-07 17:55:00,58.3,56.3,29.77,SW,221,0.0,9.0,93,0.05,,,0.68,Wunderground v.1.15,2013-10-07 21:55:00,
2013-10-07 18:00:00,58.0,56.3,29.78,WNW,282,1.0,3.0,94,0.00,,,0.68,Wunderground v.1.15,2013-10-07 22:00:00,
2013-10-07 18:05:00,57.6,55.9,29.78,SE,133,2.0,12.0,94,0.00,,,0.68,Wunderground v.1.15,2013-10-07 22:05:00,
2013-10-07 18:10:00,57.2,55.2,29.79,SW,230,5.0,15.0,93,0.00,,,0.68,Wunderground v.1.15,2013-10-07 22:10:00,
2013-10-07 18:15:00,57.0,54.7,29.79,WNW,285,3.0,15.0,92,0.00,,,0.68,Wunderground v.1.15,2013-10-07 22:15:00,
2013-10-07 18:20:00,56.6,54.6,29.80,SW,235,4.0,13.0,93,0.00,,,0.68,Wunderground v.1.15,2013-10-07 22:20:00,
2013-10-07 18:25:00,56.3,54.3,29.80,West,273,3.0,13.0,93,0.00,,,0.68,Wunderground v.1.15,2013-10-07 22:25:00,
2013-10-07 18:30:00,55.9,53.6,29.81,NW,311,3.0,11.0,92,0.00,,,0.68,Wunderground v.1.15,2013-10-07 22:30:00,
2013-10-07 18:35:00,55.7,53.7,29.80,South,170,2.0,11.0,93,0.00,,,0.68,Wunderground v.1.15,2013-10-07 22:35:00,
2013-10-07 18:40:00,55.4,53.7,29.80,SW,233,0.0,3.0,94,0.00,,,0.68,Wunderground v.1.15,2013-10-07 22:40:00,
2013-10-07 18:45:00,55.3,53.6,29.81,South,183,2.0,8.0,94,0.00,,,0.68,Wunderground v.1.15,2013-10-07 22:45:00,
2013-10-07 18:50:00,55.0,53.3,29.80,NW,316,2.0,4.0,94,0.00,,,0.68,Wunderground v.1.15,2013-10-07 22:50:00,
2013-10-07 18:55:00,54.9,53.5,29.82,WNW,295,3.0,5.0,95,0.00,,,0.68,Wunderground v.1.15,2013-10-07 22:55:00,
2013-10-07 19:00:00,54.7,53.3,29.82,NNW,341,1.0,2.0,95,0.00,,,0.68,Wunderground v.1.15,2013-10-07 23:00:00,
2013-10-07 19:05:00,54.7,53.0,29.82,WNW,300,2.0,11.0,94,0.00,,,0.68,Wunderground v.1.15,2013-10-07 23:05:00,
2013-10-07 19:10:00,54.6,52.9,29.83,NW,309,5.0,6.0,94,0.00,,,0.68,Wunderground v.1.15,2013-10-07 23:10:00,
2013-10-07 19:15:00,54.5,52.8,29.82,West,276,3.0,6.0,94,0.00,,,0.68,Wunderground v.1.15,2013-10-07 23:15:00,
2013-10-07 19:20:00,54.4,52.7,29.82,WNW,302,4.0,6.0,94,0.00,,,0.68,Wunderground v.1.15,2013-10-07 23:20:00,
2013-10-07 19:25:00,54.3,52.9,29.82,NW,315,1.0,6.0,95,0.00,,,0.68,Wunderground v.1.15,2013-10-07 23:25:00,
2013-10-07 19:31:00,54.2,52.5,29.82,West,266,3.0,6.0,94,0.00,,,0.69,Wunderground v.1.15,2013-10-07 23:31:00,
2013-10-07 19:36:00,54.0,51.7,29.82,WSW,238,13.0,13.0,92,0.00,,,0.69,Wunderground v.1.15,2013-10-07 23:36:00,
2013-10-07 19:40:00,53.8,51.8,29.84,ESE,112,1.0,5.0,93,0.00,,,0.69,Wunderground v.1.15,2013-10-07 23:40:00,
2013-10-07 19:46:00,53.5,51.5,29.84,North,1,3.0,8.0,93,0.00,,,0.69,Wunderground v.1.15,2013-10-07 23:46:00,
2013-10-07 19:51:00,53.2,51.2,29.85,NW,323,2.0,7.0,93,0.00,,,0.69,Wunderground v.1.15,2013-10-07 23:51:00,
2013-10-07 19:56:00,53.1,51.1,29.85,NW,321,3.0,7.0,93,0.00,,,0.69,Wunderground v.1.15,2013-10-07 23:56:00,
2013-10-07 20:01:00,52.8,50.8,29.85,SW,235,2.0,8.0,93,0.00,,,0.69,Wunderground v.1.15,2013-10-08 00:01:00,
2013-10-07 20:06:00,52.6,50.6,29.85,NW,316,1.0,8.0,93,0.00,,,0.69,Wunderground v.1.15,2013-10-08 00:06:00,
2013-10-07 20:11:00,52.4,50.1,29.85,West,269,6.0,6.0,92,0.00,,,0.69,Wunderground v.1.15,2013-10-08 00:11:00,
2013-10-07 20:16:00,52.2,49.4,29.85,NW,309,5.0,9.0,90,0.00,,,0.69,Wunderground v.1.15,2013-10-08 00:16:00,
2013-10-07 20:21:00,52.1,49.3,29.85,NW,319,1.0,6.0,90,0.00,,,0.69,Wunderground v.1.15,2013-10-08 00:21:00,
2013-10-07 20:26:00,51.8,49.0,29.85,WNW,284,3.0,6.0,90,0.00,,,0.69,Wunderground v.1.15,2013-10-08 00:26:00,
2013-10-07 20:31:00,51.7,48.9,29.85,NNW,333,0.0,4.0,90,0.00,,,0.69,Wunderground v.1.15,2013-10-08 00:31:00,
2013-10-07 20:36:00,51.4,48.9,29.86,West,264,0.0,7.0,91,0.00,,,0.69,Wunderground v.1.15,2013-10-08 00:36:00,
2013-10-07 20:41:00,51.3,48.8,29.86,NW,314,4.0,4.0,91,0.00,,,0.69,Wunderground v.1.15,2013-10-08 00:41:00,
2013-10-07 20:46:00,51.2,48.1,29.86,NW,319,2.0,7.0,89,0.00,,,0.69,Wunderground v.1.15,2013-10-08 00:46:00,
2013-10-07 20:51:00,51.0,47.9,29.87,WNW,300,2.0,5.0,89,0.00,,,0.69,Wunderground v.1.15,2013-10-08 00:51:00,
2013-10-07 20:56:00,50.9,47.8,29.86,WNW,295,6.0,6.0,89,0.00,,,0.69,Wunderground v.1.15,2013-10-08 00:56:00,
2013-10-07 21:01:00,50.9,48.1,29.87,West,281,0.0,2.0,90,0.00,,,0.69,Wunderground v.1.15,2013-10-08 01:01:00,
2013-10-07 21:06:00,50.6,47.5,29.87,NW,307,3.0,7.0,89,0.00,,,0.69,Wunderground v.1.15,2013-10-08 01:06:00,
2013-10-07 21:11:00,50.5,47.7,29.87,NW,307,4.0,4.0,90,0.00,,,0.69,Wunderground v.1.15,2013-10-08 01:11:00,
2013-10-07 21:16:00,50.3,47.2,29.87,West,275,3.0,6.0,89,0.00,,,0.69,Wunderground v.1.15,2013-10-08 01:16:00,
2013-10-07 21:21:00,50.3,47.2,29.87,NW,313,2.0,4.0,89,0.00,,,0.69,Wunderground v.1.15,2013-10-08 01:21:00,
2013-10-07 21:26:00,50.3,47.2,29.88,WNW,299,2.0,7.0,89,0.00,,,0.69,Wunderground v.1.15,2013-10-08 01:26:00,
2013-10-07 21:31:00,49.9,47.1,29.88,WNW,301,0.0,3.0,90,0.00,,,0.69,Wunderground v.1.15,2013-10-08 01:31:00,
2013-10-07 21:36:00,49.9,46.8,29.88,NW,306,4.0,8.0,89,0.00,,,0.69,Wunderground v.1.15,2013-10-08 01:36:00,
2013-10-07 21:41:00,49.7,46.9,29.87,NW,315,0.0,2.0,90,0.00,,,0.69,Wunderground v.1.15,2013-10-08 01:41:00,
2013-10-07 21:46:00,49.4,46.6,29.88,NNW,341,0.0,2.0,90,0.00,,,0.69,Wunderground v.1.15,2013-10-08 01:46:00,
2013-10-07 21:51:00,49.4,46.3,29.88,North,6,3.0,3.0,89,0.00,,,0.69,Wunderground v.1.15,2013-10-08 01:51:00,
2013-10-07 21:56:00,49.4,46.3,29.88,WSW,238,3.0,4.0,89,0.00,,,0.69,Wunderground v.1.15,2013-10-08 01:56:00,
2013-10-07 22:01:00,49.2,46.1,29.88,NE,37,1.0,2.0,89,0.00,,,0.69,Wunderground v.1.15,2013-10-08 02:01:00,
2013-10-07 22:06:00,49.0,45.9,29.88,NNE,32,3.0,5.0,89,0.00,,,0.69,Wunderground v.1.15,2013-10-08 02:06:00,
2013-10-07 22:11:00,49.0,45.9,29.88,North,352,5.0,5.0,89,0.00,,,0.69,Wunderground v.1.15,2013-10-08 02:11:00,
2013-10-07 22:16:00,48.9,45.8,29.88,NW,325,1.0,6.0,89,0.00,,,0.69,Wunderground v.1.15,2013-10-08 02:16:00,
2013-10-07 22:21:00,49.1,45.7,29.88,WSW,250,0.0,2.0,88,0.00,,,0.69,Wunderground v.1.15,2013-10-08 02:21:00,
2013-10-07 22:26:00,49.1,45.4,29.88,WNW,295,2.0,6.0,87,0.00,,,0.69,Wunderground v.1.15,2013-10-08 02:26:00,
2013-10-07 22:31:00,49.1,45.7,29.88,WNW,297,0.0,4.0,88,0.00,,,0.69,Wunderground v.1.15,2013-10-08 02:31:00,
2013-10-07 22:36:00,48.9,45.5,29.88,NW,324,3.0,4.0,88,0.00,,,0.69,Wunderground v.1.15,2013-10-08 02:36:00,
2013-10-07 22:41:00,49.1,45.7,29.88,West,273,1.0,7.0,88,0.00,,,0.69,Wunderground v.1.15,2013-10-08 02:41:00,
2013-10-07 22:46:00,49.0,45.6,29.89,West,271,5.0,7.0,88,0.00,,,0.69,Wunderground v.1.15,2013-10-08 02:46:00,
2013-10-07 22:51:00,48.7,45.6,29.89,WSW,254,1.0,2.0,89,0.00,,,0.69,Wunderground v.1.15,2013-10-08 02:51:00,
2013-10-07 22:56:00,48.6,45.5,29.89,WNW,295,0.0,2.0,89,0.00,,,0.69,Wunderground v.1.15,2013-10-08 02:56:00,
2013-10-07 23:01:00,48.8,45.7,29.89,WNW,290,2.0,4.0,89,0.00,,,0.69,Wunderground v.1.15,2013-10-08 03:01:00,
2013-10-07 23:06:00,49.0,45.9,29.89,NNW,332,1.0,4.0,89,0.00,,,0.69,Wunderground v.1.15,2013-10-08 03:06:00,
2013-10-07 23:11:00,49.0,45.6,29.89,NW,306,0.0,7.0,88,0.00,,,0.69,Wunderground v.1.15,2013-10-08 03:11:00,
2013-10-07 23:16:00,48.9,45.8,29.90,WNW,292,0.0,7.0,89,0.00,,,0.69,Wunderground v.1.15,2013-10-08 03:16:00,
2013-10-07 23:21:00,48.9,45.8,29.89,WNW,297,2.0,4.0,89,0.00,,,0.69,Wunderground v.1.15,2013-10-08 03:21:00,
2013-10-07 23:26:00,49.0,45.9,29.89,NW,314,1.0,7.0,89,0.00,,,0.69,Wunderground v.1.15,2013-10-08 03:26:00,
2013-10-07 23:31:00,48.9,46.1,29.89,NNW,335,0.0,3.0,90,0.00,,,0.69,Wunderground v.1.15,2013-10-08 03:31:00,
2013-10-07 23:36:00,48.8,45.7,29.89,NW,322,2.0,7.0,89,0.00,,,0.69,Wunderground v.1.15,2013-10-08 03:36:00,
2013-10-07 23:41:00,49.0,45.9,29.90,WSW,246,0.0,6.0,89,0.00,,,0.69,Wunderground v.1.15,2013-10-08 03:41:00,
2013-10-07 23:46:00,49.0,45.9,29.89,NW,310,2.0,6.0,89,0.00,,,0.69,Wunderground v.1.15,2013-10-08 03:46:00,
2013-10-07 23:51:00,48.9,45.8,29.90,NNW,332,2.0,3.0,89,0.00,,,0.69,Wunderground v.1.15,2013-10-08 03:51:00,
2013-10-07 23:56:00,49.0,45.6,29.90,NW,304,4.0,10.0,88,0.00,,,0.69,Wunderground v.1.15,2013-10-08 03:56:00,